sensor_id;sensor_type;location;lat;lon;timestamp;temperature;humidity
36716;DHT22;22699;51.034;3.730;2023-03-15T00:00:55;6.70;99.90
36716;DHT22;22699;51.034;3.730;2023-03-15T00:03:22;6.70;99.90
36716;DHT22;22699;51.034;3.730;2023-03-15T00:05:50;6.70;99.90
36716;DHT22;22699;51.034;3.730;2023-03-15T00:08:21;6.80;99.90
36716;DHT22;22699;51.034;3.730;2023-03-15T00:10:50;6.80;99.90
36716;DHT22;22699;51.034;3.730;2023-03-15T00:13:18;6.70;99.90
36716;DHT22;22699;51.034;3.730;2023-03-15T00:15:56;6.70;99.90
36716;DHT22;22699;51.034;3.730;2023-03-15T00:18:25;6.60;99.90
36716;DHT22;22699;51.034;3.730;2023-03-15T00:20:54;6.60;99.90
36716;DHT22;22699;51.034;3.730;2023-03-15T00:23:21;6.60;99.90
36716;DHT22;22699;51.034;3.730;2023-03-15T00:25:48;6.60;99.90
36716;DHT22;22699;51.034;3.730;2023-03-15T00:28:14;6.70;99.90
36716;DHT22;22699;51.034;3.730;2023-03-15T00:30:41;6.80;99.90
36716;DHT22;22699;51.034;3.730;2023-03-15T00:33:06;6.80;99.90
36716;DHT22;22699;51.034;3.730;2023-03-15T00:35:36;6.70;99.90
36716;DHT22;22699;51.034;3.730;2023-03-15T00:38:03;6.70;99.90
36716;DHT22;22699;51.034;3.730;2023-03-15T00:40:40;6.80;99.90
36716;DHT22;22699;51.034;3.730;2023-03-15T00:43:17;7.00;99.90
36716;DHT22;22699;51.034;3.730;2023-03-15T00:45:43;6.80;99.90
36716;DHT22;22699;51.034;3.730;2023-03-15T00:48:11;6.80;99.90
36716;DHT22;22699;51.034;3.730;2023-03-15T00:50:37;6.80;99.90
36716;DHT22;22699;51.034;3.730;2023-03-15T00:53:03;6.80;99.90
36716;DHT22;22699;51.034;3.730;2023-03-15T00:55:30;6.70;99.90
36716;DHT22;22699;51.034;3.730;2023-03-15T00:57:58;6.60;99.90
36716;DHT22;22699;51.034;3.730;2023-03-15T01:00:23;6.60;99.90
36716;DHT22;22699;51.034;3.730;2023-03-15T01:02:53;6.50;99.90
36716;DHT22;22699;51.034;3.730;2023-03-15T01:05:20;6.60;99.90
36716;DHT22;22699;51.034;3.730;2023-03-15T01:07:48;6.60;99.90
36716;DHT22;22699;51.034;3.730;2023-03-15T01:10:15;6.60;99.90
36716;DHT22;22699;51.034;3.730;2023-03-15T01:12:42;6.60;99.90
36716;DHT22;22699;51.034;3.730;2023-03-15T01:15:11;6.80;99.90
36716;DHT22;22699;51.034;3.730;2023-03-15T01:17:37;6.70;99.90
36716;DHT22;22699;51.034;3.730;2023-03-15T01:20:05;6.80;99.90
36716;DHT22;22699;51.034;3.730;2023-03-15T01:22:32;6.80;99.90
36716;DHT22;22699;51.034;3.730;2023-03-15T01:24:57;6.90;99.90
36716;DHT22;22699;51.034;3.730;2023-03-15T01:27:25;6.90;99.90
36716;DHT22;22699;51.034;3.730;2023-03-15T01:29:51;7.00;99.90
36716;DHT22;22699;51.034;3.730;2023-03-15T01:32:17;7.00;99.90
36716;DHT22;22699;51.034;3.730;2023-03-15T01:34:42;7.00;99.90
36716;DHT22;22699;51.034;3.730;2023-03-15T01:37:09;7.20;99.90
36716;DHT22;22699;51.034;3.730;2023-03-15T01:39:39;7.20;99.90
36716;DHT22;22699;51.034;3.730;2023-03-15T01:42:05;7.10;99.90
36716;DHT22;22699;51.034;3.730;2023-03-15T01:44:56;7.00;99.90
36716;DHT22;22699;51.034;3.730;2023-03-15T01:47:24;7.00;99.90
36716;DHT22;22699;51.034;3.730;2023-03-15T01:50:00;7.00;99.90
36716;DHT22;22699;51.034;3.730;2023-03-15T01:52:31;7.00;99.90
36716;DHT22;22699;51.034;3.730;2023-03-15T01:55:18;6.90;99.90
36716;DHT22;22699;51.034;3.730;2023-03-15T01:57:50;6.90;99.90
36716;DHT22;22699;51.034;3.730;2023-03-15T02:00:20;6.90;99.90
36716;DHT22;22699;51.034;3.730;2023-03-15T02:05:31;6.60;99.90
36716;DHT22;22699;51.034;3.730;2023-03-15T02:07:58;6.50;99.90
36716;DHT22;22699;51.034;3.730;2023-03-15T02:10:34;6.40;99.90
36716;DHT22;22699;51.034;3.730;2023-03-15T02:13:01;6.30;99.90
36716;DHT22;22699;51.034;3.730;2023-03-15T02:15:27;6.30;99.90
36716;DHT22;22699;51.034;3.730;2023-03-15T02:17:53;6.30;99.90
36716;DHT22;22699;51.034;3.730;2023-03-15T02:20:42;6.30;99.90
36716;DHT22;22699;51.034;3.730;2023-03-15T02:23:17;6.20;99.90
36716;DHT22;22699;51.034;3.730;2023-03-15T02:28:22;6.20;99.90
36716;DHT22;22699;51.034;3.730;2023-03-15T02:30:48;6.20;99.90
36716;DHT22;22699;51.034;3.730;2023-03-15T02:35:46;6.50;99.90
36716;DHT22;22699;51.034;3.730;2023-03-15T02:38:12;6.60;99.90
36716;DHT22;22699;51.034;3.730;2023-03-15T02:40:39;6.50;99.90
36716;DHT22;22699;51.034;3.730;2023-03-15T02:43:09;6.50;99.90
36716;DHT22;22699;51.034;3.730;2023-03-15T02:45:38;6.60;99.90
36716;DHT22;22699;51.034;3.730;2023-03-15T02:48:05;6.60;99.90
36716;DHT22;22699;51.034;3.730;2023-03-15T02:50:31;6.80;99.90
36716;DHT22;22699;51.034;3.730;2023-03-15T02:52:57;6.80;99.90
36716;DHT22;22699;51.034;3.730;2023-03-15T02:55:23;6.90;99.90
36716;DHT22;22699;51.034;3.730;2023-03-15T02:57:49;6.80;99.90
36716;DHT22;22699;51.034;3.730;2023-03-15T03:00:15;6.70;99.90
36716;DHT22;22699;51.034;3.730;2023-03-15T03:02:43;6.90;99.90
36716;DHT22;22699;51.034;3.730;2023-03-15T03:05:11;6.90;99.90
36716;DHT22;22699;51.034;3.730;2023-03-15T03:07:43;7.00;99.90
36716;DHT22;22699;51.034;3.730;2023-03-15T03:10:13;6.80;99.90
36716;DHT22;22699;51.034;3.730;2023-03-15T03:12:39;6.70;99.90
36716;DHT22;22699;51.034;3.730;2023-03-15T03:15:06;6.60;99.90
36716;DHT22;22699;51.034;3.730;2023-03-15T03:17:33;6.60;99.90
36716;DHT22;22699;51.034;3.730;2023-03-15T03:20:07;6.50;99.90
36716;DHT22;22699;51.034;3.730;2023-03-15T03:22:35;6.70;99.90
36716;DHT22;22699;51.034;3.730;2023-03-15T03:25:01;6.60;99.90
36716;DHT22;22699;51.034;3.730;2023-03-15T03:27:28;6.70;99.90
36716;DHT22;22699;51.034;3.730;2023-03-15T03:29:55;6.50;99.90
36716;DHT22;22699;51.034;3.730;2023-03-15T03:32:20;6.30;99.90
36716;DHT22;22699;51.034;3.730;2023-03-15T03:34:46;6.20;99.90
36716;DHT22;22699;51.034;3.730;2023-03-15T03:37:18;6.10;99.90
36716;DHT22;22699;51.034;3.730;2023-03-15T03:39:44;6.20;99.90
36716;DHT22;22699;51.034;3.730;2023-03-15T03:42:10;6.20;99.90
36716;DHT22;22699;51.034;3.730;2023-03-15T03:44:39;6.10;99.90
36716;DHT22;22699;51.034;3.730;2023-03-15T03:47:04;6.00;99.90
36716;DHT22;22699;51.034;3.730;2023-03-15T03:49:30;6.00;99.90
36716;DHT22;22699;51.034;3.730;2023-03-15T03:51:56;6.00;99.90
36716;DHT22;22699;51.034;3.730;2023-03-15T03:54:22;6.10;99.90
36716;DHT22;22699;51.034;3.730;2023-03-15T03:56:49;6.20;99.90
36716;DHT22;22699;51.034;3.730;2023-03-15T03:59:15;6.00;99.90
36716;DHT22;22699;51.034;3.730;2023-03-15T04:01:42;6.00;99.90
36716;DHT22;22699;51.034;3.730;2023-03-15T04:04:08;5.80;99.90
36716;DHT22;22699;51.034;3.730;2023-03-15T04:06:34;5.80;99.90
36716;DHT22;22699;51.034;3.730;2023-03-15T04:09:00;5.90;99.90
36716;DHT22;22699;51.034;3.730;2023-03-15T04:11:28;5.80;99.90
36716;DHT22;22699;51.034;3.730;2023-03-15T04:13:54;5.80;99.90
36716;DHT22;22699;51.034;3.730;2023-03-15T04:16:21;5.80;99.90
36716;DHT22;22699;51.034;3.730;2023-03-15T04:18:48;5.70;99.90
36716;DHT22;22699;51.034;3.730;2023-03-15T04:21:14;5.70;99.90
36716;DHT22;22699;51.034;3.730;2023-03-15T04:23:41;5.60;99.90
36716;DHT22;22699;51.034;3.730;2023-03-15T04:26:10;5.70;99.90
36716;DHT22;22699;51.034;3.730;2023-03-15T04:28:37;5.60;99.90
36716;DHT22;22699;51.034;3.730;2023-03-15T04:31:02;5.60;99.90
36716;DHT22;22699;51.034;3.730;2023-03-15T04:33:28;5.50;99.90
36716;DHT22;22699;51.034;3.730;2023-03-15T04:35:55;5.40;99.90
36716;DHT22;22699;51.034;3.730;2023-03-15T04:38:21;5.30;99.90
36716;DHT22;22699;51.034;3.730;2023-03-15T04:41:00;5.30;99.90
36716;DHT22;22699;51.034;3.730;2023-03-15T04:43:27;5.30;99.90
36716;DHT22;22699;51.034;3.730;2023-03-15T04:45:54;5.30;99.90
36716;DHT22;22699;51.034;3.730;2023-03-15T04:48:19;5.30;99.90
36716;DHT22;22699;51.034;3.730;2023-03-15T04:50:45;5.30;99.90
36716;DHT22;22699;51.034;3.730;2023-03-15T04:53:11;5.30;99.90
36716;DHT22;22699;51.034;3.730;2023-03-15T04:55:36;5.20;99.90
36716;DHT22;22699;51.034;3.730;2023-03-15T04:58:02;5.30;99.90
36716;DHT22;22699;51.034;3.730;2023-03-15T05:00:27;5.20;99.90
36716;DHT22;22699;51.034;3.730;2023-03-15T05:02:53;5.30;99.90
36716;DHT22;22699;51.034;3.730;2023-03-15T05:05:22;5.20;99.90
36716;DHT22;22699;51.034;3.730;2023-03-15T05:07:48;5.20;99.90
36716;DHT22;22699;51.034;3.730;2023-03-15T05:10:15;5.20;99.90
36716;DHT22;22699;51.034;3.730;2023-03-15T05:12:41;5.20;99.90
36716;DHT22;22699;51.034;3.730;2023-03-15T05:15:07;5.00;99.90
36716;DHT22;22699;51.034;3.730;2023-03-15T05:17:32;5.00;99.90
36716;DHT22;22699;51.034;3.730;2023-03-15T05:19:58;5.00;99.90
36716;DHT22;22699;51.034;3.730;2023-03-15T05:22:36;5.00;99.90
36716;DHT22;22699;51.034;3.730;2023-03-15T05:25:02;5.00;99.90
36716;DHT22;22699;51.034;3.730;2023-03-15T05:27:28;5.00;99.90
36716;DHT22;22699;51.034;3.730;2023-03-15T05:29:54;5.00;99.90
36716;DHT22;22699;51.034;3.730;2023-03-15T05:32:19;4.90;99.90
36716;DHT22;22699;51.034;3.730;2023-03-15T05:34:52;4.90;99.90
36716;DHT22;22699;51.034;3.730;2023-03-15T05:37:23;4.90;99.90
36716;DHT22;22699;51.034;3.730;2023-03-15T05:39:49;4.80;99.90
36716;DHT22;22699;51.034;3.730;2023-03-15T05:42:17;4.80;99.90
36716;DHT22;22699;51.034;3.730;2023-03-15T05:44:49;4.80;99.90
36716;DHT22;22699;51.034;3.730;2023-03-15T05:47:16;4.90;99.90
36716;DHT22;22699;51.034;3.730;2023-03-15T05:49:42;4.90;99.90
36716;DHT22;22699;51.034;3.730;2023-03-15T05:52:08;4.90;99.90
36716;DHT22;22699;51.034;3.730;2023-03-15T05:54:34;4.90;99.90
36716;DHT22;22699;51.034;3.730;2023-03-15T05:56:59;4.90;99.90
36716;DHT22;22699;51.034;3.730;2023-03-15T05:59:27;4.90;99.90
36716;DHT22;22699;51.034;3.730;2023-03-15T06:01:53;5.00;99.90
36716;DHT22;22699;51.034;3.730;2023-03-15T06:04:18;4.90;99.90
36716;DHT22;22699;51.034;3.730;2023-03-15T06:06:44;4.80;99.90
36716;DHT22;22699;51.034;3.730;2023-03-15T06:09:10;4.80;99.90
36716;DHT22;22699;51.034;3.730;2023-03-15T06:11:36;4.80;99.90
36716;DHT22;22699;51.034;3.730;2023-03-15T06:14:08;4.80;99.90
36716;DHT22;22699;51.034;3.730;2023-03-15T06:16:34;4.80;99.90
36716;DHT22;22699;51.034;3.730;2023-03-15T06:19:00;4.90;99.90
36716;DHT22;22699;51.034;3.730;2023-03-15T06:21:27;4.90;99.90
36716;DHT22;22699;51.034;3.730;2023-03-15T06:23:53;5.00;99.90
36716;DHT22;22699;51.034;3.730;2023-03-15T06:26:31;5.00;99.90
36716;DHT22;22699;51.034;3.730;2023-03-15T06:28:59;4.90;99.90
36716;DHT22;22699;51.034;3.730;2023-03-15T06:31:27;4.90;99.90
36716;DHT22;22699;51.034;3.730;2023-03-15T06:33:53;4.90;99.90
36716;DHT22;22699;51.034;3.730;2023-03-15T06:36:21;4.90;99.90
36716;DHT22;22699;51.034;3.730;2023-03-15T06:41:32;4.90;99.90
36716;DHT22;22699;51.034;3.730;2023-03-15T06:44:11;4.90;99.90
36716;DHT22;22699;51.034;3.730;2023-03-15T06:46:39;4.90;99.90
36716;DHT22;22699;51.034;3.730;2023-03-15T06:49:08;5.10;99.90
36716;DHT22;22699;51.034;3.730;2023-03-15T06:51:36;5.30;99.90
36716;DHT22;22699;51.034;3.730;2023-03-15T06:54:07;5.40;99.90
36716;DHT22;22699;51.034;3.730;2023-03-15T06:56:36;5.50;99.90
36716;DHT22;22699;51.034;3.730;2023-03-15T06:59:18;5.80;99.90
36716;DHT22;22699;51.034;3.730;2023-03-15T07:01:50;5.80;99.90
36716;DHT22;22699;51.034;3.730;2023-03-15T07:04:17;5.60;99.90
36716;DHT22;22699;51.034;3.730;2023-03-15T07:06:50;5.50;99.90
36716;DHT22;22699;51.034;3.730;2023-03-15T07:09:18;5.50;99.90
36716;DHT22;22699;51.034;3.730;2023-03-15T07:11:51;5.30;99.90
36716;DHT22;22699;51.034;3.730;2023-03-15T07:14:20;5.30;99.90
36716;DHT22;22699;51.034;3.730;2023-03-15T07:16:48;5.50;99.90
36716;DHT22;22699;51.034;3.730;2023-03-15T07:19:18;5.40;99.90
36716;DHT22;22699;51.034;3.730;2023-03-15T07:21:44;5.50;99.90
36716;DHT22;22699;51.034;3.730;2023-03-15T07:24:11;5.60;99.90
36716;DHT22;22699;51.034;3.730;2023-03-15T07:26:39;6.00;99.90
36716;DHT22;22699;51.034;3.730;2023-03-15T07:29:05;6.00;99.90
36716;DHT22;22699;51.034;3.730;2023-03-15T07:31:32;6.40;99.90
36716;DHT22;22699;51.034;3.730;2023-03-15T07:33:58;6.60;99.90
36716;DHT22;22699;51.034;3.730;2023-03-15T07:36:24;6.80;99.90
36716;DHT22;22699;51.034;3.730;2023-03-15T07:38:51;7.40;99.90
36716;DHT22;22699;51.034;3.730;2023-03-15T07:41:20;7.40;99.90
36716;DHT22;22699;51.034;3.730;2023-03-15T07:43:46;7.80;99.90
36716;DHT22;22699;51.034;3.730;2023-03-15T07:46:15;7.60;99.90
36716;DHT22;22699;51.034;3.730;2023-03-15T07:48:41;7.40;99.90
36716;DHT22;22699;51.034;3.730;2023-03-15T07:51:08;7.70;99.90
36716;DHT22;22699;51.034;3.730;2023-03-15T07:53:35;8.30;99.90
36716;DHT22;22699;51.034;3.730;2023-03-15T07:56:08;8.60;99.90
36716;DHT22;22699;51.034;3.730;2023-03-15T07:58:36;8.60;99.90
36716;DHT22;22699;51.034;3.730;2023-03-15T08:01:03;8.10;99.90
36716;DHT22;22699;51.034;3.730;2023-03-15T08:03:31;10.70;99.90
36716;DHT22;22699;51.034;3.730;2023-03-15T08:06:02;13.60;99.90
36716;DHT22;22699;51.034;3.730;2023-03-15T08:08:34;15.20;98.80
36716;DHT22;22699;51.034;3.730;2023-03-15T08:11:37;17.70;95.30
36716;DHT22;22699;51.034;3.730;2023-03-15T08:21:39;25.20;56.60
36716;DHT22;22699;51.034;3.730;2023-03-15T08:36:05;35.00;40.80
36716;DHT22;22699;51.034;3.730;2023-03-15T08:38:40;36.00;37.90
36716;DHT22;22699;51.034;3.730;2023-03-15T08:41:06;36.40;37.20
36716;DHT22;22699;51.034;3.730;2023-03-15T08:43:31;36.70;36.40
36716;DHT22;22699;51.034;3.730;2023-03-15T08:45:57;36.80;35.60
36716;DHT22;22699;51.034;3.730;2023-03-15T08:48:23;37.50;35.20
36716;DHT22;22699;51.034;3.730;2023-03-15T08:50:48;37.40;35.00
36716;DHT22;22699;51.034;3.730;2023-03-15T08:53:14;38.30;34.60
36716;DHT22;22699;51.034;3.730;2023-03-15T08:55:39;38.50;33.30
36716;DHT22;22699;51.034;3.730;2023-03-15T08:58:05;38.70;32.80
36716;DHT22;22699;51.034;3.730;2023-03-15T09:00:31;38.50;32.80
36716;DHT22;22699;51.034;3.730;2023-03-15T09:02:57;38.70;33.00
36716;DHT22;22699;51.034;3.730;2023-03-15T09:05:24;38.70;32.50
36716;DHT22;22699;51.034;3.730;2023-03-15T09:07:50;38.50;32.00
36716;DHT22;22699;51.034;3.730;2023-03-15T09:10:20;37.70;32.50
36716;DHT22;22699;51.034;3.730;2023-03-15T09:12:49;36.40;33.30
36716;DHT22;22699;51.034;3.730;2023-03-15T09:15:40;34.30;34.50
36716;DHT22;22699;51.034;3.730;2023-03-15T09:22:09;27.20;37.40
36716;DHT22;22699;51.034;3.730;2023-03-15T09:25:19;24.40;40.30
36716;DHT22;22699;51.034;3.730;2023-03-15T09:28:13;21.40;43.30
36716;DHT22;22699;51.034;3.730;2023-03-15T09:30:51;19.60;45.80
36716;DHT22;22699;51.034;3.730;2023-03-15T09:33:25;18.30;47.10
36716;DHT22;22699;51.034;3.730;2023-03-15T09:35:53;17.30;48.80
36716;DHT22;22699;51.034;3.730;2023-03-15T09:38:22;16.40;51.00
36716;DHT22;22699;51.034;3.730;2023-03-15T09:40:50;15.80;52.70
36716;DHT22;22699;51.034;3.730;2023-03-15T09:43:42;15.10;55.20
36716;DHT22;22699;51.034;3.730;2023-03-15T09:48:58;16.20;54.20
36716;DHT22;22699;51.034;3.730;2023-03-15T09:51:56;18.40;50.50
36716;DHT22;22699;51.034;3.730;2023-03-15T10:25:42;11.40;62.40
36716;DHT22;22699;51.034;3.730;2023-03-15T10:32:03;11.60;63.60
36716;DHT22;22699;51.034;3.730;2023-03-15T10:34:51;11.30;63.50
36716;DHT22;22699;51.034;3.730;2023-03-15T10:37:25;11.60;64.00
36716;DHT22;22699;51.034;3.730;2023-03-15T10:40:15;11.60;63.30
36716;DHT22;22699;51.034;3.730;2023-03-15T10:43:01;11.50;63.60
36716;DHT22;22699;51.034;3.730;2023-03-15T10:46:04;10.90;65.40
36716;DHT22;22699;51.034;3.730;2023-03-15T10:51:46;10.70;66.00
36716;DHT22;22699;51.034;3.730;2023-03-15T10:54:17;10.80;67.10
36716;DHT22;22699;51.034;3.730;2023-03-15T10:56:46;10.60;67.70
36716;DHT22;22699;51.034;3.730;2023-03-15T11:36:20;10.70;61.30
36716;DHT22;22699;51.034;3.730;2023-03-15T11:51:54;11.40;62.70
36716;DHT22;22699;51.034;3.730;2023-03-15T12:05:05;11.00;62.90
36716;DHT22;22699;51.034;3.730;2023-03-15T12:21:54;11.60;60.40
